DNAA/ABV METAR and TAF weather

Enter ICAO airport designator
Station Type Date Time Source
DNAA METAR 2022/09/26 09:00 UTC NOAA

DNAA 260900Z 09002KT 9999 -TSRA BKN007 FEW018CB 21/20 Q1016 NOSIG


Station Type Date Time Source
DNAA Decoded METAR 2022/09/26 09:00 UTC NOAA

Station name not available
Sep 26, 2022 - 05:00 AM EDT / 2022.09.26 0900 UTC
Wind: from the E (090 degrees) at 2 MPH (2 KT):0
Visibility: greater than 7 mile(s):0
Sky conditions: mostly cloudy
Weather: light rain with thunder; Cumulonimbus clouds observed
Temperature: 69 F (21 C)
Dew Point: 68 F (20 C)
Relative Humidity: 94%
Pressure (altimeter): 30.00 in. Hg (1016 hPa)
ob: DNAA 260900Z 09002KT 9999 -TSRA BKN007 FEW018CB 21/20 Q1016 NOSIG
cycle: 9

Station Type Date Time Source
DNAA TAF 2022/09/26 06:15 UTC NOAA

TAF TAF DNAA 260500Z 2606/2712 18005KT 9999 TS SCT007 FEW018CB
TEMPO 2606/2612 06018G32KT 5000 -TSRA BKN007 FEW018CB
BECMG 2612/2614 24010KT NSW SCT010 PROB30
TEMPO 2617/2621 TS SCT011 FEW020CB
BECMG 2621/2623 13004KT
BECMG 2708/2710 24010KT BKN010

Example: see airport list